createdAt,value
2024-01-16T00:02:14.540Z,2.45
2024-01-16T00:05:04.400Z,1.80
2024-01-16T00:07:53.585Z,1.98
2024-01-16T00:10:24.308Z,2.33
2024-01-16T00:12:57.586Z,1.92
2024-01-16T00:15:28.312Z,1.80
2024-01-16T00:17:59.193Z,1.92
2024-01-16T00:20:30.055Z,2.17
2024-01-16T00:23:00.816Z,2.03
2024-01-16T00:25:31.568Z,1.98
2024-01-16T00:28:05.522Z,2.10
2024-01-16T00:30:36.242Z,2.63
2024-01-16T00:33:07.180Z,2.15
2024-01-16T00:35:37.924Z,2.17
2024-01-16T00:38:08.744Z,2.92
2024-01-16T00:40:39.489Z,1.90
2024-01-16T00:43:12.881Z,1.80
2024-01-16T00:45:44.212Z,2.00
2024-01-16T00:48:15.592Z,1.73
2024-01-16T00:50:47.555Z,1.58
2024-01-16T00:53:18.444Z,2.35
2024-01-16T00:55:49.211Z,2.10
2024-01-16T00:58:22.505Z,2.10
2024-01-16T01:00:53.677Z,1.55
2024-01-16T01:03:24.498Z,2.47
2024-01-16T01:05:55.443Z,2.38
2024-01-16T01:08:26.279Z,1.52
2024-01-16T01:10:57.102Z,1.98
2024-01-16T01:13:30.550Z,1.55
2024-01-16T01:16:01.705Z,2.30
2024-01-16T01:18:32.601Z,2.45
2024-01-16T01:21:03.416Z,1.83
2024-01-16T01:23:34.268Z,1.80
2024-01-16T01:26:06.072Z,1.63
2024-01-16T01:28:41.417Z,2.33
2024-01-16T01:31:13.353Z,1.77
2024-01-16T01:33:44.331Z,2.03
2024-01-16T01:36:15.010Z,1.90
2024-01-16T01:38:45.743Z,1.63
2024-01-16T01:41:16.480Z,2.15
2024-01-16T01:43:49.808Z,2.03
2024-01-16T01:46:22.979Z,2.30
2024-01-16T01:48:54.290Z,1.95
2024-01-16T01:51:25.927Z,1.50
2024-01-16T01:53:59.906Z,1.58
2024-01-16T01:56:31.628Z,1.90
2024-01-16T01:59:05.965Z,1.95
2024-01-16T02:01:38.431Z,2.53
2024-01-16T02:04:10.413Z,2.10
2024-01-16T02:06:41.285Z,2.17
2024-01-16T02:09:14.605Z,3.03
2024-01-16T02:11:45.972Z,2.83
2024-01-16T02:14:19.397Z,2.00
2024-01-16T02:16:50.995Z,1.90
2024-01-16T02:19:21.913Z,2.22
2024-01-16T02:21:53.466Z,2.50
2024-01-16T02:24:26.844Z,1.85
2024-01-16T02:26:57.761Z,1.90
2024-01-16T02:29:28.569Z,1.95
2024-01-16T02:31:59.311Z,1.80
2024-01-16T02:34:30.066Z,2.47
2024-01-16T02:37:00.805Z,1.80
2024-01-16T02:39:34.235Z,2.38
2024-01-16T02:42:04.991Z,2.10
2024-01-16T02:44:35.841Z,1.90
2024-01-16T02:47:08.572Z,2.20
2024-01-16T02:49:41.371Z,1.80
2024-01-16T02:52:12.131Z,2.40
2024-01-16T02:54:45.648Z,2.28
2024-01-16T02:57:16.664Z,2.50
2024-01-16T02:59:48.114Z,2.17
2024-01-16T03:02:18.934Z,2.05
2024-01-16T03:04:49.704Z,2.25
2024-01-16T03:07:20.823Z,2.15
2024-01-16T03:09:54.288Z,2.53
2024-01-16T03:12:25.045Z,2.50
2024-01-16T03:14:55.886Z,2.15
2024-01-16T03:17:27.158Z,2.40
2024-01-16T03:19:58.021Z,3.05
2024-01-16T03:22:28.666Z,2.72
2024-01-16T03:25:01.907Z,3.20
2024-01-16T03:27:32.791Z,2.40
2024-01-16T03:30:04.331Z,2.20
2024-01-16T03:32:35.508Z,3.90
2024-01-16T03:35:06.413Z,2.47
2024-01-16T03:37:37.389Z,2.88
2024-01-16T03:40:13.465Z,3.40
2024-01-16T03:42:44.166Z,2.60
2024-01-16T03:45:17.683Z,3.10
2024-01-16T03:47:50.633Z,2.63
2024-01-16T03:50:21.532Z,2.60
2024-01-16T03:52:52.331Z,3.35
2024-01-16T03:55:25.679Z,3.53
2024-01-16T03:57:56.429Z,4.00
2024-01-16T04:00:27.118Z,2.58
2024-01-16T04:02:57.844Z,3.25
2024-01-16T04:05:28.594Z,2.78
2024-01-16T04:08:01.143Z,3.05
2024-01-16T04:10:34.469Z,3.38
2024-01-16T04:13:05.592Z,3.65
2024-01-16T04:15:36.418Z,2.78
2024-01-16T04:18:08.140Z,3.10
2024-01-16T04:20:38.955Z,3.22
2024-01-16T04:23:09.673Z,3.08
2024-01-16T04:25:43.031Z,3.08
2024-01-16T04:28:13.748Z,2.58
2024-01-16T04:30:47.566Z,3.40
2024-01-16T04:33:18.472Z,3.05
2024-01-16T04:35:46.982Z,2.60
2024-01-16T04:38:17.862Z,2.67
2024-01-16T04:40:51.302Z,2.45
2024-01-16T04:43:22.105Z,3.83
2024-01-16T04:45:52.857Z,3.67
2024-01-16T04:48:23.607Z,2.55
2024-01-16T04:50:54.503Z,2.45
2024-01-16T04:53:25.357Z,3.35
2024-01-16T04:55:58.822Z,2.67
2024-01-16T04:58:29.582Z,3.33
2024-01-16T05:01:00.341Z,3.40
2024-01-16T05:03:31.221Z,3.03
2024-01-16T05:06:02.146Z,2.85
2024-01-16T05:08:32.911Z,3.00
2024-01-16T05:11:06.393Z,2.58
2024-01-16T05:13:37.123Z,3.30
2024-01-16T05:16:09.360Z,3.60
2024-01-16T05:18:40.150Z,3.28
2024-01-16T05:21:11.133Z,3.40
2024-01-16T05:23:41.945Z,3.28
2024-01-16T05:26:15.299Z,3.25
2024-01-16T05:28:46.056Z,3.92
2024-01-16T05:31:16.833Z,2.95
2024-01-16T05:33:47.725Z,2.67
2024-01-16T05:36:18.458Z,3.53
2024-01-16T05:38:49.208Z,3.05
2024-01-16T05:41:22.810Z,4.00
2024-01-16T05:43:53.565Z,4.28
2024-01-16T05:46:24.831Z,3.38
2024-01-16T05:48:55.710Z,4.05
2024-01-16T05:51:26.855Z,3.95
2024-01-16T05:53:57.609Z,3.28
2024-01-16T05:56:30.965Z,4.70
2024-01-16T05:59:01.683Z,3.80
2024-01-16T06:01:32.376Z,4.60
2024-01-16T06:04:03.170Z,4.22
2024-01-16T06:06:34.609Z,4.63
2024-01-16T06:09:07.117Z,3.55
2024-01-16T06:11:42.139Z,3.90
2024-01-16T06:14:13.706Z,3.72
2024-01-16T06:16:44.475Z,3.88
2024-01-16T06:19:16.098Z,4.07
2024-01-16T06:21:46.872Z,4.32
2024-01-16T06:24:17.577Z,4.88
2024-01-16T06:26:51.055Z,4.10
2024-01-16T06:29:31.574Z,3.95
2024-01-16T06:32:05.912Z,4.30
2024-01-16T06:34:36.767Z,5.03
2024-01-16T06:37:08.054Z,4.55
2024-01-16T06:39:39.414Z,3.92
2024-01-16T06:42:12.903Z,4.10
2024-01-16T06:44:43.703Z,3.50
2024-01-16T06:47:14.635Z,5.00
2024-01-16T06:49:45.597Z,3.85
2024-01-16T06:52:16.467Z,4.88
2024-01-16T06:54:47.216Z,5.85
2024-01-16T06:57:20.591Z,6.15
2024-01-16T06:59:51.600Z,5.82
2024-01-16T07:02:22.401Z,5.28
2024-01-16T07:04:53.189Z,5.25
2024-01-16T07:07:23.977Z,4.95
2024-01-16T07:09:54.689Z,5.38
2024-01-16T07:12:28.029Z,6.97
2024-01-16T07:14:58.824Z,5.47
2024-01-16T07:17:29.687Z,4.28
2024-01-16T07:20:00.504Z,6.50
2024-01-16T07:22:31.270Z,4.40
2024-01-16T07:25:02.104Z,5.97
2024-01-16T07:27:35.724Z,5.13
2024-01-16T07:30:09.222Z,6.30
2024-01-16T07:32:40.112Z,5.32
2024-01-16T07:35:11.756Z,6.18
2024-01-16T07:37:42.486Z,6.07
2024-01-16T07:40:14.091Z,5.78
2024-01-16T07:42:47.515Z,5.45
2024-01-16T07:45:18.485Z,6.78
2024-01-16T07:47:49.225Z,5.60
2024-01-16T07:50:19.973Z,5.43
2024-01-16T07:52:50.740Z,6.68
2024-01-16T07:55:24.391Z,6.10
2024-01-16T07:57:58.917Z,6.32
2024-01-16T08:00:29.655Z,6.55
2024-01-16T08:03:00.655Z,5.28
2024-01-16T08:05:31.736Z,5.38
2024-01-16T08:08:02.546Z,6.18
2024-01-16T08:10:33.303Z,6.20
2024-01-16T08:13:07.371Z,5.20
2024-01-16T08:15:38.719Z,7.53
2024-01-16T08:18:09.912Z,6.38
2024-01-16T08:20:40.789Z,6.32
2024-01-16T08:23:11.608Z,6.80
2024-01-16T08:25:42.389Z,6.03
2024-01-16T08:28:16.275Z,5.88
2024-01-16T08:30:47.139Z,5.68
2024-01-16T08:33:18.064Z,6.93
2024-01-16T08:35:48.935Z,5.82
2024-01-16T08:38:19.688Z,7.07
2024-01-16T08:40:50.477Z,6.18
2024-01-16T08:43:23.812Z,6.93
2024-01-16T08:45:54.603Z,7.88
2024-01-16T08:48:25.552Z,7.72
2024-01-16T08:50:57.290Z,6.38
2024-01-16T08:53:28.507Z,6.43
2024-01-16T08:55:59.320Z,7.38
2024-01-16T08:58:37.033Z,8.10
2024-01-16T09:01:08.651Z,6.78
2024-01-16T09:03:39.560Z,6.75
2024-01-16T09:06:11.975Z,7.78
2024-01-16T09:08:43.005Z,6.35
2024-01-16T09:11:13.937Z,7.35
2024-01-16T09:13:47.829Z,6.78
2024-01-16T09:16:18.642Z,5.00
2024-01-16T09:18:49.535Z,7.50
2024-01-16T09:21:20.377Z,7.45
2024-01-16T09:23:51.208Z,7.90
2024-01-16T09:26:22.230Z,7.05
2024-01-16T09:28:55.664Z,7.53
2024-01-16T09:31:26.372Z,7.50
2024-01-16T09:33:57.167Z,8.68
2024-01-16T09:36:27.920Z,7.22
2024-01-16T09:38:58.735Z,8.65
2024-01-16T09:41:48.713Z,8.15
2024-01-16T09:44:22.198Z,7.47
2024-01-16T09:46:55.026Z,7.50
2024-01-16T09:49:27.125Z,6.88
2024-01-16T09:52:00.462Z,7.07
2024-01-16T09:54:31.286Z,7.75
2024-01-16T09:57:03.301Z,7.80
2024-01-16T09:59:40.716Z,7.25
2024-01-16T10:02:14.255Z,8.25
2024-01-16T10:04:45.846Z,9.18
2024-01-16T10:07:18.167Z,8.70
2024-01-16T10:09:48.941Z,7.72
2024-01-16T10:12:20.338Z,8.13
2024-01-16T10:14:54.722Z,7.90
2024-01-16T10:17:25.494Z,7.03
2024-01-16T10:19:59.729Z,6.65
2024-01-16T10:22:30.567Z,4.70
2024-01-16T10:25:09.962Z,3.67
2024-01-16T10:27:42.736Z,4.10
2024-01-16T10:30:17.102Z,5.78
2024-01-16T10:32:50.084Z,6.15
2024-01-16T10:35:22.293Z,5.70
2024-01-16T10:37:54.773Z,5.32
2024-01-16T10:40:27.854Z,4.65
2024-01-16T10:43:06.047Z,5.45
2024-01-16T10:45:39.379Z,4.55
2024-01-16T10:48:11.753Z,4.05
2024-01-16T10:50:42.870Z,5.07
2024-01-16T10:53:14.188Z,5.30
2024-01-16T10:55:54.983Z,5.20
2024-01-16T10:58:27.074Z,5.68
2024-01-16T11:01:01.833Z,4.78
2024-01-16T11:03:39.173Z,5.20
2024-01-16T11:06:12.829Z,4.32
2024-01-16T11:08:44.147Z,5.45
2024-01-16T11:11:15.723Z,3.92
2024-01-16T11:13:47.871Z,3.50
2024-01-16T11:16:22.910Z,3.90
2024-01-16T11:18:54.974Z,4.45
2024-01-16T11:21:26.738Z,4.40
2024-01-16T11:23:57.686Z,4.22
2024-01-16T11:26:34.735Z,4.53
2024-01-16T11:29:38.876Z,4.82
2024-01-16T11:32:23.147Z,3.65
2024-01-16T11:35:01.767Z,5.00
2024-01-16T11:37:34.324Z,4.40
2024-01-16T11:40:27.446Z,4.00
2024-01-16T11:42:59.749Z,4.32
2024-01-16T11:45:52.801Z,5.18
2024-01-16T11:48:26.404Z,4.43
2024-01-16T11:51:00.376Z,4.80
2024-01-16T11:53:41.980Z,4.55
2024-01-16T11:59:32.470Z,3.75
2024-01-16T12:02:14.588Z,5.03
2024-01-16T12:04:58.123Z,4.53
2024-01-16T12:07:29.135Z,5.07
2024-01-16T12:10:04.136Z,3.90
2024-01-16T12:12:34.886Z,4.30
2024-01-16T12:15:05.709Z,3.38
2024-01-16T12:17:36.594Z,3.60
2024-01-16T12:20:23.826Z,3.85
2024-01-16T12:23:01.972Z,3.60
2024-01-16T12:26:00.461Z,4.45
2024-01-16T12:28:32.176Z,2.90
2024-01-16T12:31:04.914Z,2.45
2024-01-16T12:33:35.889Z,2.78
2024-01-16T12:36:12.071Z,2.55
2024-01-16T12:38:42.899Z,3.33
2024-01-16T12:41:16.898Z,3.92
2024-01-16T12:43:52.621Z,3.35
2024-01-16T12:46:25.973Z,4.93
2024-01-16T12:49:03.658Z,4.57
2024-01-16T12:51:39.607Z,5.32
2024-01-16T12:54:18.996Z,4.30
2024-01-16T12:56:50.433Z,4.55
2024-01-16T12:59:21.172Z,3.90
2024-01-16T13:01:52.577Z,4.30
2024-01-16T13:04:23.222Z,3.65
2024-01-16T13:07:07.036Z,3.63
2024-01-16T13:09:38.277Z,4.68
2024-01-16T13:12:09.492Z,5.13
2024-01-16T13:14:40.401Z,4.53
2024-01-16T13:17:11.555Z,4.05
2024-01-16T13:19:44.114Z,4.20
2024-01-16T13:22:17.552Z,4.47
2024-01-16T13:24:54.683Z,4.03
2024-01-16T13:27:34.036Z,4.55
2024-01-16T13:30:04.896Z,5.35
2024-01-16T13:32:38.876Z,4.05
2024-01-16T13:35:11.233Z,4.47
2024-01-16T13:37:44.660Z,4.43
2024-01-16T13:40:21.500Z,4.28
2024-01-16T13:42:53.404Z,5.55
2024-01-16T13:45:37.591Z,4.68
2024-01-16T13:48:10.204Z,4.32
2024-01-16T13:50:41.066Z,4.10
2024-01-16T13:53:15.015Z,4.55
2024-01-16T13:55:46.153Z,4.82
2024-01-16T13:58:17.031Z,4.40
2024-01-16T14:00:47.921Z,5.03
2024-01-16T14:03:18.984Z,4.00
2024-01-16T14:05:50.643Z,4.30
2024-01-16T14:08:24.021Z,3.40
2024-01-16T14:10:54.906Z,3.80
2024-01-16T14:13:26.590Z,4.32
2024-01-16T14:15:58.683Z,3.67
2024-01-16T14:18:29.503Z,4.18
2024-01-16T14:21:00.434Z,3.45
2024-01-16T14:23:33.798Z,2.92
2024-01-16T14:26:04.505Z,3.30
2024-01-16T14:28:35.229Z,3.72
2024-01-16T14:31:06.040Z,3.22
2024-01-16T14:33:36.885Z,3.08
2024-01-16T14:36:09.519Z,2.92
2024-01-16T14:38:43.087Z,3.33
2024-01-16T14:41:15.360Z,2.58
2024-01-16T14:43:47.239Z,3.40
2024-01-16T14:46:18.019Z,2.88
2024-01-16T14:48:49.529Z,4.38
2024-01-16T14:51:20.424Z,3.50
2024-01-16T14:53:53.948Z,4.05
2024-01-16T14:56:25.589Z,3.95
2024-01-16T14:58:56.332Z,3.38
2024-01-16T15:01:27.290Z,4.28
2024-01-16T15:03:59.350Z,4.18
2024-01-16T15:06:30.932Z,4.03
2024-01-16T15:09:05.577Z,4.15
2024-01-16T15:11:36.443Z,4.68
2024-01-16T15:14:07.200Z,6.10
2024-01-16T15:16:38.013Z,3.67
2024-01-16T15:19:08.908Z,3.47
2024-01-16T15:21:40.859Z,2.97
2024-01-16T15:24:17.686Z,3.10
2024-01-16T15:26:48.558Z,3.40
2024-01-16T15:29:19.317Z,4.07
2024-01-16T15:31:50.312Z,3.33
2024-01-16T15:34:21.143Z,3.88
2024-01-16T15:36:52.359Z,3.60
2024-01-16T15:39:25.847Z,2.92
2024-01-16T15:41:56.681Z,3.53
2024-01-16T15:44:27.527Z,3.20
2024-01-16T15:47:01.812Z,3.75
2024-01-16T15:49:33.574Z,2.72
2024-01-16T15:52:04.381Z,4.30
2024-01-16T15:54:38.347Z,3.13
2024-01-16T15:57:09.393Z,3.92
2024-01-16T15:59:40.160Z,2.95
2024-01-16T16:02:11.048Z,3.83
2024-01-16T16:04:42.844Z,3.35
2024-01-16T16:07:14.513Z,3.53
2024-01-16T16:09:47.858Z,3.15
2024-01-16T16:12:19.248Z,3.90
2024-01-16T16:14:50.088Z,3.72
2024-01-16T16:17:20.941Z,3.40
2024-01-16T16:19:53.283Z,4.80
2024-01-16T16:22:24.027Z,3.85
2024-01-16T16:24:58.705Z,3.90
2024-01-16T16:27:31.347Z,3.33
2024-01-16T16:30:02.189Z,4.45
2024-01-16T16:32:33.046Z,3.33
2024-01-16T16:35:05.908Z,3.75
2024-01-16T16:37:36.712Z,3.28
2024-01-16T16:40:13.538Z,3.85
2024-01-16T16:42:44.348Z,3.28
2024-01-16T16:45:15.588Z,2.63
2024-01-16T16:47:46.356Z,3.15
2024-01-16T16:50:17.174Z,3.20
2024-01-16T16:52:48.132Z,3.53
2024-01-16T16:55:21.701Z,3.50
2024-01-16T16:57:52.545Z,3.30
2024-01-16T17:00:23.870Z,2.75
2024-01-16T17:02:54.769Z,3.00
2024-01-16T17:05:25.955Z,3.33
2024-01-16T17:07:56.844Z,2.75
2024-01-16T17:10:27.595Z,2.70
2024-01-16T17:12:58.313Z,3.05
2024-01-16T17:15:29.072Z,2.50
2024-01-16T17:17:59.846Z,2.80
2024-01-16T17:20:31.547Z,2.67
2024-01-16T17:23:02.749Z,3.00
2024-01-16T17:25:36.070Z,2.53
2024-01-16T17:28:07.420Z,2.67
2024-01-16T17:30:38.308Z,2.67
2024-01-16T17:33:09.529Z,2.17
2024-01-16T17:35:40.383Z,2.63
2024-01-16T17:38:11.172Z,2.03
2024-01-16T17:40:44.905Z,2.47
2024-01-16T17:43:15.672Z,2.15
2024-01-16T17:45:46.599Z,2.00
2024-01-16T17:48:18.369Z,1.23
2024-01-16T17:50:50.172Z,1.20
2024-01-16T17:53:22.633Z,1.23
2024-01-16T17:55:57.135Z,1.75
2024-01-16T17:58:27.906Z,1.02
2024-01-16T18:00:58.736Z,1.20
2024-01-16T18:03:40.400Z,1.08
2024-01-16T18:06:13.860Z,1.00
2024-01-16T18:08:44.916Z,1.20
2024-01-16T18:11:18.245Z,1.77
2024-01-16T18:13:49.011Z,1.00
2024-01-16T18:16:19.776Z,1.25
2024-01-16T18:18:53.190Z,1.30
2024-01-16T18:21:24.151Z,1.25
2024-01-16T18:23:54.882Z,1.10
2024-01-16T18:26:28.624Z,1.02
2024-01-16T18:28:59.876Z,1.27
2024-01-16T18:31:30.573Z,0.80
2024-01-16T18:34:01.470Z,3.15
2024-01-16T18:36:32.357Z,6.65
2024-01-16T18:39:04.696Z,0.70
2024-01-16T18:41:38.551Z,0.70
2024-01-16T18:44:13.417Z,0.50
2024-01-16T18:46:44.195Z,0.70
2024-01-16T18:49:17.226Z,0.73
2024-01-16T18:51:48.897Z,0.60
2024-01-16T18:54:20.268Z,0.77
2024-01-16T18:56:53.857Z,0.73
2024-01-16T18:59:24.935Z,0.70
2024-01-16T19:01:55.693Z,0.80
2024-01-16T19:04:27.426Z,0.73
2024-01-16T19:06:58.180Z,0.80
2024-01-16T19:09:36.958Z,1.08
2024-01-16T19:12:13.589Z,1.30
2024-01-16T19:14:46.307Z,0.73
2024-01-16T19:17:19.904Z,1.00
2024-01-16T19:19:50.761Z,0.65
2024-01-16T19:22:21.586Z,0.73
2024-01-16T19:24:52.445Z,0.82
2024-01-16T19:27:27.045Z,0.80
2024-01-16T19:29:59.774Z,0.70
2024-01-16T19:32:30.789Z,0.93
2024-01-16T19:35:03.349Z,1.30
2024-01-16T19:37:34.242Z,1.17
2024-01-16T19:40:05.759Z,1.35
2024-01-16T19:42:40.215Z,1.10
2024-01-16T19:45:12.894Z,1.33
2024-01-16T19:47:44.045Z,1.70
2024-01-16T19:50:23.774Z,2.80
2024-01-16T19:52:59.216Z,2.05
2024-01-16T19:55:30.668Z,1.20
2024-01-16T19:58:04.536Z,2.70
2024-01-16T20:00:35.913Z,2.58
2024-01-16T20:03:08.732Z,2.30
2024-01-16T20:05:43.858Z,2.38
2024-01-16T20:08:15.317Z,2.88
2024-01-16T20:10:46.078Z,3.38
2024-01-16T20:13:20.249Z,3.65
2024-01-16T20:15:53.997Z,3.72
2024-01-16T20:18:24.924Z,3.97
2024-01-16T20:20:56.120Z,2.53
2024-01-16T20:23:27.099Z,4.13
2024-01-16T20:25:58.314Z,3.20
2024-01-16T20:28:31.852Z,2.53
2024-01-16T20:31:02.792Z,3.05
2024-01-16T20:33:33.674Z,2.80
2024-01-16T20:36:04.610Z,2.58
2024-01-16T20:38:35.405Z,2.55
2024-01-16T20:41:06.775Z,2.30
2024-01-16T20:43:40.373Z,2.17
2024-01-16T20:46:11.623Z,2.58
2024-01-16T20:48:42.656Z,2.55
2024-01-16T20:51:17.318Z,2.03
2024-01-16T20:53:57.039Z,2.40
2024-01-16T20:56:28.376Z,2.13
2024-01-16T20:59:25.639Z,2.40
2024-01-16T21:01:56.614Z,2.95
2024-01-16T21:04:27.457Z,3.08
2024-01-16T21:06:59.992Z,3.13
2024-01-16T21:09:31.188Z,3.30
2024-01-16T21:12:04.579Z,3.17
2024-01-16T21:14:39.292Z,3.03
2024-01-16T21:17:10.084Z,3.00
2024-01-16T21:19:40.838Z,3.38
2024-01-16T21:22:12.387Z,3.47
2024-01-16T21:24:43.772Z,3.38
2024-01-16T21:27:16.136Z,2.80
2024-01-16T21:29:49.640Z,2.70
2024-01-16T21:32:20.437Z,2.78
2024-01-16T21:34:51.277Z,2.55
2024-01-16T21:37:22.043Z,2.92
2024-01-16T21:39:54.310Z,2.67
2024-01-16T21:42:25.280Z,2.60
2024-01-16T21:44:58.756Z,2.72
2024-01-16T21:47:29.627Z,3.55
2024-01-16T21:50:06.124Z,4.07
2024-01-16T21:52:38.133Z,6.40
2024-01-16T21:55:10.124Z,6.63
2024-01-16T21:57:41.686Z,5.40
2024-01-16T22:00:16.587Z,5.20
2024-01-16T22:02:47.386Z,3.95
2024-01-16T22:05:18.164Z,3.08
2024-01-16T22:07:48.954Z,3.80
2024-01-16T22:10:19.878Z,3.88
2024-01-16T22:12:50.730Z,4.10
2024-01-16T22:15:24.298Z,3.55
2024-01-16T22:17:56.844Z,3.35
2024-01-16T22:20:33.247Z,4.03
2024-01-16T22:23:04.341Z,4.18
2024-01-16T22:25:35.103Z,4.07
2024-01-16T22:28:06.099Z,3.42
2024-01-16T22:30:39.727Z,4.47
2024-01-16T22:33:10.569Z,4.78
2024-01-16T22:35:41.433Z,4.13
2024-01-16T22:38:12.200Z,4.72
2024-01-16T22:40:43.565Z,5.72
2024-01-16T22:43:14.264Z,6.25
2024-01-16T22:45:47.607Z,4.97
2024-01-16T22:48:18.462Z,5.70
2024-01-16T22:50:50.955Z,5.85
2024-01-16T22:53:23.427Z,5.22
2024-01-16T22:55:54.352Z,5.40
2024-01-16T22:58:25.101Z,6.93
2024-01-16T23:01:02.405Z,6.43
2024-01-16T23:03:33.373Z,5.82
2024-01-16T23:06:04.595Z,6.80
2024-01-16T23:08:35.425Z,6.32
2024-01-16T23:11:06.232Z,6.97
2024-01-16T23:13:37.833Z,6.43
2024-01-16T23:16:11.304Z,7.20
2024-01-16T23:18:42.307Z,8.13
2024-01-16T23:21:15.193Z,7.32
2024-01-16T23:23:52.255Z,7.40
2024-01-16T23:26:23.999Z,8.30
2024-01-16T23:28:55.000Z,9.10
2024-01-16T23:31:28.411Z,8.20
2024-01-16T23:33:59.206Z,6.90
2024-01-16T23:36:31.490Z,7.75
2024-01-16T23:39:02.887Z,7.80
2024-01-16T23:41:33.730Z,8.52
2024-01-16T23:44:05.750Z,9.10
2024-01-16T23:46:40.178Z,9.65
2024-01-16T23:49:11.025Z,8.90
2024-01-16T23:51:41.763Z,9.02
2024-01-16T23:54:12.555Z,9.30
2024-01-16T23:56:43.590Z,9.40
2024-01-16T23:59:14.365Z,8.43
